sensor_id;sensor_type;location;lat;lon;timestamp;P1;durP1;ratioP1;P2;durP2;ratioP2
12958;SDS011;6544;51.666;6.634;2023-07-29T00:00:39;3.03;;;2.30;;
12958;SDS011;6544;51.666;6.634;2023-07-29T00:03:07;4.28;;;2.15;;
12958;SDS011;6544;51.666;6.634;2023-07-29T00:05:34;3.45;;;2.22;;
12958;SDS011;6544;51.666;6.634;2023-07-29T00:08:01;3.95;;;2.40;;
12958;SDS011;6544;51.666;6.634;2023-07-29T00:10:28;6.15;;;2.40;;
12958;SDS011;6544;51.666;6.634;2023-07-29T00:12:57;6.55;;;2.10;;
12958;SDS011;6544;51.666;6.634;2023-07-29T00:15:24;4.55;;;2.30;;
12958;SDS011;6544;51.666;6.634;2023-07-29T00:17:52;5.63;;;2.58;;
12958;SDS011;6544;51.666;6.634;2023-07-29T00:20:19;5.97;;;2.30;;
12958;SDS011;6544;51.666;6.634;2023-07-29T00:22:46;7.75;;;2.70;;
12958;SDS011;6544;51.666;6.634;2023-07-29T00:25:14;3.08;;;2.10;;
12958;SDS011;6544;51.666;6.634;2023-07-29T00:27:41;6.60;;;2.40;;
12958;SDS011;6544;51.666;6.634;2023-07-29T00:30:08;5.93;;;2.10;;
12958;SDS011;6544;51.666;6.634;2023-07-29T00:32:36;6.18;;;2.95;;
12958;SDS011;6544;51.666;6.634;2023-07-29T00:35:05;4.68;;;2.53;;
12958;SDS011;6544;51.666;6.634;2023-07-29T00:37:32;2.72;;;2.10;;
12958;SDS011;6544;51.666;6.634;2023-07-29T00:39:59;3.67;;;2.30;;
12958;SDS011;6544;51.666;6.634;2023-07-29T00:42:26;4.88;;;2.38;;
12958;SDS011;6544;51.666;6.634;2023-07-29T00:44:53;3.80;;;2.38;;
12958;SDS011;6544;51.666;6.634;2023-07-29T00:47:20;2.30;;;2.10;;
12958;SDS011;6544;51.666;6.634;2023-07-29T00:49:48;3.00;;;2.30;;
12958;SDS011;6544;51.666;6.634;2023-07-29T00:52:17;2.40;;;2.17;;
12958;SDS011;6544;51.666;6.634;2023-07-29T00:54:44;3.78;;;2.38;;
12958;SDS011;6544;51.666;6.634;2023-07-29T00:57:10;3.08;;;2.42;;
12958;SDS011;6544;51.666;6.634;2023-07-29T00:59:41;5.43;;;2.58;;
12958;SDS011;6544;51.666;6.634;2023-07-29T01:02:08;4.15;;;2.50;;
12958;SDS011;6544;51.666;6.634;2023-07-29T01:04:35;3.25;;;2.17;;
12958;SDS011;6544;51.666;6.634;2023-07-29T01:07:03;3.17;;;2.45;;
12958;SDS011;6544;51.666;6.634;2023-07-29T01:09:43;4.00;;;2.35;;
12958;SDS011;6544;51.666;6.634;2023-07-29T01:12:24;4.90;;;2.53;;
12958;SDS011;6544;51.666;6.634;2023-07-29T01:14:59;2.75;;;2.22;;
12958;SDS011;6544;51.666;6.634;2023-07-29T01:17:33;5.32;;;2.53;;
12958;SDS011;6544;51.666;6.634;2023-07-29T01:20:04;2.83;;;2.40;;
12958;SDS011;6544;51.666;6.634;2023-07-29T01:22:34;4.95;;;2.55;;
12958;SDS011;6544;51.666;6.634;2023-07-29T01:25:03;4.90;;;2.67;;
12958;SDS011;6544;51.666;6.634;2023-07-29T01:27:31;2.97;;;2.40;;
12958;SDS011;6544;51.666;6.634;2023-07-29T01:29:58;3.15;;;2.50;;
12958;SDS011;6544;51.666;6.634;2023-07-29T01:32:27;3.97;;;2.30;;
12958;SDS011;6544;51.666;6.634;2023-07-29T01:34:59;3.75;;;2.45;;
12958;SDS011;6544;51.666;6.634;2023-07-29T01:37:30;3.75;;;2.58;;
12958;SDS011;6544;51.666;6.634;2023-07-29T01:40:00;6.50;;;2.90;;
12958;SDS011;6544;51.666;6.634;2023-07-29T01:42:30;4.95;;;2.67;;
12958;SDS011;6544;51.666;6.634;2023-07-29T01:44:57;5.07;;;2.90;;
12958;SDS011;6544;51.666;6.634;2023-07-29T01:47:24;4.07;;;2.58;;
12958;SDS011;6544;51.666;6.634;2023-07-29T01:49:51;3.10;;;2.42;;
12958;SDS011;6544;51.666;6.634;2023-07-29T01:52:18;7.63;;;2.60;;
12958;SDS011;6544;51.666;6.634;2023-07-29T01:54:45;2.92;;;2.63;;
12958;SDS011;6544;51.666;6.634;2023-07-29T01:57:13;3.63;;;2.53;;
12958;SDS011;6544;51.666;6.634;2023-07-29T01:59:40;3.13;;;2.50;;
12958;SDS011;6544;51.666;6.634;2023-07-29T02:02:06;3.55;;;2.47;;
12958;SDS011;6544;51.666;6.634;2023-07-29T02:04:33;3.38;;;2.30;;
12958;SDS011;6544;51.666;6.634;2023-07-29T02:07:00;2.88;;;2.50;;
12958;SDS011;6544;51.666;6.634;2023-07-29T02:09:27;3.55;;;2.80;;
12958;SDS011;6544;51.666;6.634;2023-07-29T02:11:54;4.03;;;2.75;;
12958;SDS011;6544;51.666;6.634;2023-07-29T02:14:22;3.35;;;2.55;;
12958;SDS011;6544;51.666;6.634;2023-07-29T02:16:49;3.85;;;2.70;;
12958;SDS011;6544;51.666;6.634;2023-07-29T02:19:16;3.13;;;2.72;;
12958;SDS011;6544;51.666;6.634;2023-07-29T02:21:43;2.80;;;2.60;;
12958;SDS011;6544;51.666;6.634;2023-07-29T02:24:09;2.97;;;2.60;;
12958;SDS011;6544;51.666;6.634;2023-07-29T02:26:36;4.10;;;3.20;;
12958;SDS011;6544;51.666;6.634;2023-07-29T02:29:03;3.83;;;2.70;;
12958;SDS011;6544;51.666;6.634;2023-07-29T02:31:32;4.57;;;3.10;;
12958;SDS011;6544;51.666;6.634;2023-07-29T02:33:59;3.35;;;3.00;;
12958;SDS011;6544;51.666;6.634;2023-07-29T02:36:26;3.78;;;2.58;;
12958;SDS011;6544;51.666;6.634;2023-07-29T02:38:53;5.35;;;3.33;;
12958;SDS011;6544;51.666;6.634;2023-07-29T02:41:20;4.20;;;3.33;;
12958;SDS011;6544;51.666;6.634;2023-07-29T02:43:48;6.72;;;3.33;;
12958;SDS011;6544;51.666;6.634;2023-07-29T02:46:15;4.70;;;3.20;;
12958;SDS011;6544;51.666;6.634;2023-07-29T02:48:44;6.75;;;2.80;;
12958;SDS011;6544;51.666;6.634;2023-07-29T02:51:11;4.43;;;3.05;;
12958;SDS011;6544;51.666;6.634;2023-07-29T02:53:38;4.82;;;3.15;;
12958;SDS011;6544;51.666;6.634;2023-07-29T02:56:05;4.30;;;3.22;;
12958;SDS011;6544;51.666;6.634;2023-07-29T02:58:34;4.60;;;3.72;;
12958;SDS011;6544;51.666;6.634;2023-07-29T03:01:02;6.47;;;3.00;;
12958;SDS011;6544;51.666;6.634;2023-07-29T03:03:30;5.10;;;3.50;;
12958;SDS011;6544;51.666;6.634;2023-07-29T03:06:00;3.67;;;3.33;;
12958;SDS011;6544;51.666;6.634;2023-07-29T03:08:28;5.63;;;3.42;;
12958;SDS011;6544;51.666;6.634;2023-07-29T03:10:55;4.82;;;3.22;;
12958;SDS011;6544;51.666;6.634;2023-07-29T03:13:22;4.95;;;3.60;;
12958;SDS011;6544;51.666;6.634;2023-07-29T03:15:49;5.45;;;3.28;;
12958;SDS011;6544;51.666;6.634;2023-07-29T03:18:16;3.78;;;3.33;;
12958;SDS011;6544;51.666;6.634;2023-07-29T03:20:43;5.10;;;3.85;;
12958;SDS011;6544;51.666;6.634;2023-07-29T03:23:11;4.13;;;3.70;;
12958;SDS011;6544;51.666;6.634;2023-07-29T03:25:38;5.43;;;3.60;;
12958;SDS011;6544;51.666;6.634;2023-07-29T03:28:05;3.80;;;3.50;;
12958;SDS011;6544;51.666;6.634;2023-07-29T03:30:32;4.50;;;3.75;;
12958;SDS011;6544;51.666;6.634;2023-07-29T03:32:58;4.63;;;3.70;;
12958;SDS011;6544;51.666;6.634;2023-07-29T03:35:25;5.60;;;3.45;;
12958;SDS011;6544;51.666;6.634;2023-07-29T03:37:52;5.40;;;3.67;;
12958;SDS011;6544;51.666;6.634;2023-07-29T03:40:20;5.63;;;3.30;;
12958;SDS011;6544;51.666;6.634;2023-07-29T03:42:47;5.30;;;3.53;;
12958;SDS011;6544;51.666;6.634;2023-07-29T03:45:14;5.03;;;3.67;;
12958;SDS011;6544;51.666;6.634;2023-07-29T03:47:41;6.53;;;3.80;;
12958;SDS011;6544;51.666;6.634;2023-07-29T03:50:08;5.47;;;3.58;;
12958;SDS011;6544;51.666;6.634;2023-07-29T03:52:35;4.40;;;3.58;;
12958;SDS011;6544;51.666;6.634;2023-07-29T03:55:02;6.30;;;3.83;;
12958;SDS011;6544;51.666;6.634;2023-07-29T03:57:31;4.70;;;3.78;;
12958;SDS011;6544;51.666;6.634;2023-07-29T03:59:58;4.47;;;3.42;;
12958;SDS011;6544;51.666;6.634;2023-07-29T04:02:25;4.55;;;3.50;;
12958;SDS011;6544;51.666;6.634;2023-07-29T04:04:51;4.03;;;3.70;;
12958;SDS011;6544;51.666;6.634;2023-07-29T04:07:18;6.15;;;3.88;;
12958;SDS011;6544;51.666;6.634;2023-07-29T04:09:48;4.55;;;4.00;;
12958;SDS011;6544;51.666;6.634;2023-07-29T04:12:15;4.60;;;3.90;;
12958;SDS011;6544;51.666;6.634;2023-07-29T04:14:45;4.75;;;4.20;;
12958;SDS011;6544;51.666;6.634;2023-07-29T04:17:12;5.93;;;4.70;;
12958;SDS011;6544;51.666;6.634;2023-07-29T04:19:39;4.82;;;4.32;;
12958;SDS011;6544;51.666;6.634;2023-07-29T04:22:06;5.05;;;4.38;;
12958;SDS011;6544;51.666;6.634;2023-07-29T04:24:32;7.18;;;5.10;;
12958;SDS011;6544;51.666;6.634;2023-07-29T04:26:59;6.57;;;5.43;;
12958;SDS011;6544;51.666;6.634;2023-07-29T04:29:26;11.10;;;6.10;;
12958;SDS011;6544;51.666;6.634;2023-07-29T04:31:54;9.02;;;6.13;;
12958;SDS011;6544;51.666;6.634;2023-07-29T04:34:21;8.07;;;5.93;;
12958;SDS011;6544;51.666;6.634;2023-07-29T04:36:48;8.40;;;5.50;;
12958;SDS011;6544;51.666;6.634;2023-07-29T04:39:15;6.93;;;6.22;;
12958;SDS011;6544;51.666;6.634;2023-07-29T04:41:43;6.57;;;5.97;;
12958;SDS011;6544;51.666;6.634;2023-07-29T04:44:09;6.68;;;6.07;;
12958;SDS011;6544;51.666;6.634;2023-07-29T04:46:36;6.93;;;6.10;;
12958;SDS011;6544;51.666;6.634;2023-07-29T04:49:05;8.52;;;6.60;;
12958;SDS011;6544;51.666;6.634;2023-07-29T04:51:32;11.57;;;6.03;;
12958;SDS011;6544;51.666;6.634;2023-07-29T04:53:59;7.18;;;5.90;;
12958;SDS011;6544;51.666;6.634;2023-07-29T04:56:26;6.07;;;5.47;;
12958;SDS011;6544;51.666;6.634;2023-07-29T04:58:53;7.03;;;6.30;;
12958;SDS011;6544;51.666;6.634;2023-07-29T05:01:20;6.88;;;6.15;;
12958;SDS011;6544;51.666;6.634;2023-07-29T05:03:46;6.63;;;5.72;;
12958;SDS011;6544;51.666;6.634;2023-07-29T05:06:15;7.25;;;6.55;;
12958;SDS011;6544;51.666;6.634;2023-07-29T05:08:41;9.02;;;6.30;;
12958;SDS011;6544;51.666;6.634;2023-07-29T05:11:08;8.45;;;5.85;;
12958;SDS011;6544;51.666;6.634;2023-07-29T05:13:35;9.18;;;6.60;;
12958;SDS011;6544;51.666;6.634;2023-07-29T05:16:03;7.10;;;6.05;;
12958;SDS011;6544;51.666;6.634;2023-07-29T05:18:30;7.97;;;6.00;;
12958;SDS011;6544;51.666;6.634;2023-07-29T05:20:57;7.82;;;6.47;;
12958;SDS011;6544;51.666;6.634;2023-07-29T05:23:25;6.93;;;6.25;;
12958;SDS011;6544;51.666;6.634;2023-07-29T05:25:52;9.65;;;6.63;;
12958;SDS011;6544;51.666;6.634;2023-07-29T05:28:19;10.40;;;6.90;;
12958;SDS011;6544;51.666;6.634;2023-07-29T05:30:46;7.60;;;6.25;;
12958;SDS011;6544;51.666;6.634;2023-07-29T05:33:12;7.28;;;6.55;;
12958;SDS011;6544;51.666;6.634;2023-07-29T05:35:39;8.18;;;5.50;;
12958;SDS011;6544;51.666;6.634;2023-07-29T05:38:06;7.80;;;5.07;;
12958;SDS011;6544;51.666;6.634;2023-07-29T05:40:35;6.00;;;4.60;;
12958;SDS011;6544;51.666;6.634;2023-07-29T05:43:02;5.07;;;4.40;;
12958;SDS011;6544;51.666;6.634;2023-07-29T05:45:29;5.03;;;4.38;;
12958;SDS011;6544;51.666;6.634;2023-07-29T05:47:57;4.32;;;3.92;;
12958;SDS011;6544;51.666;6.634;2023-07-29T05:50:23;4.75;;;3.72;;
12958;SDS011;6544;51.666;6.634;2023-07-29T05:52:50;6.00;;;3.80;;
12958;SDS011;6544;51.666;6.634;2023-07-29T05:55:17;4.70;;;3.50;;
12958;SDS011;6544;51.666;6.634;2023-07-29T05:57:46;4.18;;;3.50;;
12958;SDS011;6544;51.666;6.634;2023-07-29T06:00:13;5.07;;;3.25;;
12958;SDS011;6544;51.666;6.634;2023-07-29T06:02:40;5.28;;;3.88;;
12958;SDS011;6544;51.666;6.634;2023-07-29T06:05:07;6.00;;;3.65;;
12958;SDS011;6544;51.666;6.634;2023-07-29T06:07:34;4.40;;;3.58;;
12958;SDS011;6544;51.666;6.634;2023-07-29T06:10:01;4.35;;;3.60;;
12958;SDS011;6544;51.666;6.634;2023-07-29T06:12:28;4.95;;;3.95;;
12958;SDS011;6544;51.666;6.634;2023-07-29T06:14:56;4.50;;;3.75;;
12958;SDS011;6544;51.666;6.634;2023-07-29T06:17:23;5.80;;;3.83;;
12958;SDS011;6544;51.666;6.634;2023-07-29T06:19:50;7.25;;;3.83;;
12958;SDS011;6544;51.666;6.634;2023-07-29T06:22:17;3.85;;;3.25;;
12958;SDS011;6544;51.666;6.634;2023-07-29T06:24:44;5.22;;;3.35;;
12958;SDS011;6544;51.666;6.634;2023-07-29T06:27:11;4.10;;;3.17;;
12958;SDS011;6544;51.666;6.634;2023-07-29T06:29:37;3.67;;;3.35;;
12958;SDS011;6544;51.666;6.634;2023-07-29T06:32:06;4.20;;;3.25;;
12958;SDS011;6544;51.666;6.634;2023-07-29T06:34:33;6.90;;;3.25;;
12958;SDS011;6544;51.666;6.634;2023-07-29T06:37:00;4.63;;;3.35;;
12958;SDS011;6544;51.666;6.634;2023-07-29T06:39:27;4.35;;;3.30;;
12958;SDS011;6544;51.666;6.634;2023-07-29T06:41:54;3.70;;;3.28;;
12958;SDS011;6544;51.666;6.634;2023-07-29T06:44:21;4.18;;;3.40;;
12958;SDS011;6544;51.666;6.634;2023-07-29T06:46:48;4.35;;;2.90;;
12958;SDS011;6544;51.666;6.634;2023-07-29T06:49:39;6.15;;;3.33;;
12958;SDS011;6544;51.666;6.634;2023-07-29T06:52:06;3.60;;;3.00;;
12958;SDS011;6544;51.666;6.634;2023-07-29T06:54:33;6.70;;;3.30;;
12958;SDS011;6544;51.666;6.634;2023-07-29T06:57:01;3.33;;;2.90;;
12958;SDS011;6544;51.666;6.634;2023-07-29T06:59:28;4.40;;;3.10;;
12958;SDS011;6544;51.666;6.634;2023-07-29T07:01:55;4.68;;;3.05;;
12958;SDS011;6544;51.666;6.634;2023-07-29T07:04:22;3.53;;;2.72;;
12958;SDS011;6544;51.666;6.634;2023-07-29T07:06:51;4.03;;;3.22;;
12958;SDS011;6544;51.666;6.634;2023-07-29T07:09:18;4.00;;;2.90;;
12958;SDS011;6544;51.666;6.634;2023-07-29T07:11:45;6.13;;;3.10;;
12958;SDS011;6544;51.666;6.634;2023-07-29T07:14:12;3.40;;;2.75;;
12958;SDS011;6544;51.666;6.634;2023-07-29T07:16:39;4.72;;;3.10;;
12958;SDS011;6544;51.666;6.634;2023-07-29T07:19:06;3.90;;;2.80;;
12958;SDS011;6544;51.666;6.634;2023-07-29T07:21:33;4.28;;;2.70;;
12958;SDS011;6544;51.666;6.634;2023-07-29T07:24:02;4.97;;;2.92;;
12958;SDS011;6544;51.666;6.634;2023-07-29T07:26:29;4.70;;;3.05;;
12958;SDS011;6544;51.666;6.634;2023-07-29T07:28:56;2.97;;;2.67;;
12958;SDS011;6544;51.666;6.634;2023-07-29T07:31:23;4.40;;;2.67;;
12958;SDS011;6544;51.666;6.634;2023-07-29T07:33:50;3.33;;;2.35;;
12958;SDS011;6544;51.666;6.634;2023-07-29T07:36:17;4.22;;;2.70;;
12958;SDS011;6544;51.666;6.634;2023-07-29T07:38:44;4.25;;;2.30;;
12958;SDS011;6544;51.666;6.634;2023-07-29T07:41:13;2.90;;;2.30;;
12958;SDS011;6544;51.666;6.634;2023-07-29T07:43:40;3.65;;;2.30;;
12958;SDS011;6544;51.666;6.634;2023-07-29T07:46:07;3.88;;;2.30;;
12958;SDS011;6544;51.666;6.634;2023-07-29T07:48:34;3.97;;;2.40;;
12958;SDS011;6544;51.666;6.634;2023-07-29T07:51:09;3.10;;;2.30;;
12958;SDS011;6544;51.666;6.634;2023-07-29T07:53:37;4.50;;;2.42;;
12958;SDS011;6544;51.666;6.634;2023-07-29T07:56:03;4.97;;;2.40;;
12958;SDS011;6544;51.666;6.634;2023-07-29T07:58:32;3.10;;;2.33;;
12958;SDS011;6544;51.666;6.634;2023-07-29T08:01:02;2.20;;;2.00;;
12958;SDS011;6544;51.666;6.634;2023-07-29T08:03:30;2.38;;;2.00;;
12958;SDS011;6544;51.666;6.634;2023-07-29T08:05:57;3.70;;;2.50;;
12958;SDS011;6544;51.666;6.634;2023-07-29T08:08:24;3.10;;;2.33;;
12958;SDS011;6544;51.666;6.634;2023-07-29T08:10:53;3.42;;;2.38;;
12958;SDS011;6544;51.666;6.634;2023-07-29T08:13:20;2.97;;;2.20;;
12958;SDS011;6544;51.666;6.634;2023-07-29T08:15:49;3.90;;;2.10;;
12958;SDS011;6544;51.666;6.634;2023-07-29T08:18:18;3.58;;;2.55;;
12958;SDS011;6544;51.666;6.634;2023-07-29T08:20:52;2.33;;;1.80;;
12958;SDS011;6544;51.666;6.634;2023-07-29T08:23:20;3.55;;;2.20;;
12958;SDS011;6544;51.666;6.634;2023-07-29T08:25:51;2.90;;;1.90;;
12958;SDS011;6544;51.666;6.634;2023-07-29T08:28:26;2.28;;;1.90;;
12958;SDS011;6544;51.666;6.634;2023-07-29T08:30:54;2.92;;;1.98;;
12958;SDS011;6544;51.666;6.634;2023-07-29T08:33:21;2.00;;;1.77;;
12958;SDS011;6544;51.666;6.634;2023-07-29T08:35:48;2.47;;;2.28;;
12958;SDS011;6544;51.666;6.634;2023-07-29T08:38:15;2.88;;;2.20;;
12958;SDS011;6544;51.666;6.634;2023-07-29T08:40:43;2.35;;;1.90;;
12958;SDS011;6544;51.666;6.634;2023-07-29T08:43:16;3.45;;;2.10;;
12958;SDS011;6544;51.666;6.634;2023-07-29T08:45:46;4.35;;;1.75;;
12958;SDS011;6544;51.666;6.634;2023-07-29T08:48:15;2.78;;;2.30;;
12958;SDS011;6544;51.666;6.634;2023-07-29T08:50:49;2.40;;;2.10;;
12958;SDS011;6544;51.666;6.634;2023-07-29T08:53:18;3.17;;;1.85;;
12958;SDS011;6544;51.666;6.634;2023-07-29T08:55:46;4.68;;;2.13;;
12958;SDS011;6544;51.666;6.634;2023-07-29T08:58:15;2.67;;;1.80;;
12958;SDS011;6544;51.666;6.634;2023-07-29T09:00:42;3.42;;;1.88;;
12958;SDS011;6544;51.666;6.634;2023-07-29T09:03:10;2.75;;;2.00;;
12958;SDS011;6544;51.666;6.634;2023-07-29T09:05:38;2.05;;;1.80;;
12958;SDS011;6544;51.666;6.634;2023-07-29T09:08:05;2.20;;;1.95;;
12958;SDS011;6544;51.666;6.634;2023-07-29T09:10:35;2.45;;;2.00;;
12958;SDS011;6544;51.666;6.634;2023-07-29T09:13:02;3.30;;;1.98;;
12958;SDS011;6544;51.666;6.634;2023-07-29T09:15:31;2.65;;;2.03;;
12958;SDS011;6544;51.666;6.634;2023-07-29T09:18:07;3.75;;;2.03;;
12958;SDS011;6544;51.666;6.634;2023-07-29T09:20:35;3.90;;;2.00;;
12958;SDS011;6544;51.666;6.634;2023-07-29T09:23:06;3.40;;;2.08;;
12958;SDS011;6544;51.666;6.634;2023-07-29T09:25:34;2.20;;;2.00;;
12958;SDS011;6544;51.666;6.634;2023-07-29T09:28:07;3.35;;;1.80;;
12958;SDS011;6544;51.666;6.634;2023-07-29T09:30:34;3.30;;;2.00;;
12958;SDS011;6544;51.666;6.634;2023-07-29T09:33:01;3.13;;;2.08;;
12958;SDS011;6544;51.666;6.634;2023-07-29T09:35:30;2.40;;;1.88;;
12958;SDS011;6544;51.666;6.634;2023-07-29T09:37:58;3.85;;;1.90;;
12958;SDS011;6544;51.666;6.634;2023-07-29T09:40:27;3.92;;;1.95;;
12958;SDS011;6544;51.666;6.634;2023-07-29T09:43:00;2.40;;;1.85;;
12958;SDS011;6544;51.666;6.634;2023-07-29T09:45:27;3.13;;;2.03;;
12958;SDS011;6544;51.666;6.634;2023-07-29T09:47:54;2.72;;;2.35;;
12958;SDS011;6544;51.666;6.634;2023-07-29T09:50:23;3.03;;;1.85;;
12958;SDS011;6544;51.666;6.634;2023-07-29T09:52:51;3.97;;;1.70;;
12958;SDS011;6544;51.666;6.634;2023-07-29T09:55:19;2.05;;;1.83;;
12958;SDS011;6544;51.666;6.634;2023-07-29T09:57:49;2.20;;;1.88;;
12958;SDS011;6544;51.666;6.634;2023-07-29T10:00:19;3.10;;;1.80;;
12958;SDS011;6544;51.666;6.634;2023-07-29T10:02:47;2.17;;;1.70;;
12958;SDS011;6544;51.666;6.634;2023-07-29T10:05:14;3.28;;;1.92;;
12958;SDS011;6544;51.666;6.634;2023-07-29T10:07:42;2.40;;;1.80;;
12958;SDS011;6544;51.666;6.634;2023-07-29T10:10:09;1.80;;;1.70;;
12958;SDS011;6544;51.666;6.634;2023-07-29T10:12:39;3.90;;;1.65;;
12958;SDS011;6544;51.666;6.634;2023-07-29T10:15:09;1.98;;;1.52;;
12958;SDS011;6544;51.666;6.634;2023-07-29T10:17:37;1.90;;;1.70;;
12958;SDS011;6544;51.666;6.634;2023-07-29T10:20:05;2.78;;;2.00;;
12958;SDS011;6544;51.666;6.634;2023-07-29T10:22:36;2.47;;;1.60;;
12958;SDS011;6544;51.666;6.634;2023-07-29T10:25:04;3.67;;;1.80;;
12958;SDS011;6544;51.666;6.634;2023-07-29T10:27:35;4.32;;;1.77;;
12958;SDS011;6544;51.666;6.634;2023-07-29T10:30:10;4.55;;;1.63;;
12958;SDS011;6544;51.666;6.634;2023-07-29T10:32:38;2.53;;;1.60;;
12958;SDS011;6544;51.666;6.634;2023-07-29T10:35:08;2.53;;;1.70;;
12958;SDS011;6544;51.666;6.634;2023-07-29T10:37:35;2.30;;;1.50;;
12958;SDS011;6544;51.666;6.634;2023-07-29T10:40:05;2.60;;;1.52;;
12958;SDS011;6544;51.666;6.634;2023-07-29T10:42:34;4.63;;;1.80;;
12958;SDS011;6544;51.666;6.634;2023-07-29T10:45:16;2.63;;;1.40;;
12958;SDS011;6544;51.666;6.634;2023-07-29T10:47:44;3.17;;;1.33;;
12958;SDS011;6544;51.666;6.634;2023-07-29T10:50:18;1.73;;;1.50;;
12958;SDS011;6544;51.666;6.634;2023-07-29T10:52:50;2.22;;;1.40;;
12958;SDS011;6544;51.666;6.634;2023-07-29T10:55:24;3.28;;;1.40;;
12958;SDS011;6544;51.666;6.634;2023-07-29T10:57:54;2.03;;;1.50;;
12958;SDS011;6544;51.666;6.634;2023-07-29T11:00:33;3.58;;;1.50;;
12958;SDS011;6544;51.666;6.634;2023-07-29T11:03:02;1.60;;;1.30;;
12958;SDS011;6544;51.666;6.634;2023-07-29T11:05:50;2.25;;;1.42;;
12958;SDS011;6544;51.666;6.634;2023-07-29T11:08:21;3.10;;;1.35;;
12958;SDS011;6544;51.666;6.634;2023-07-29T11:11:02;1.60;;;1.40;;
12958;SDS011;6544;51.666;6.634;2023-07-29T11:13:31;3.63;;;1.50;;
12958;SDS011;6544;51.666;6.634;2023-07-29T11:16:01;3.08;;;1.50;;
12958;SDS011;6544;51.666;6.634;2023-07-29T11:18:29;3.58;;;1.40;;
12958;SDS011;6544;51.666;6.634;2023-07-29T11:20:56;1.52;;;1.40;;
12958;SDS011;6544;51.666;6.634;2023-07-29T11:23:28;21.00;;;2.67;;
12958;SDS011;6544;51.666;6.634;2023-07-29T11:25:58;1.67;;;1.30;;
12958;SDS011;6544;51.666;6.634;2023-07-29T11:28:26;2.13;;;1.52;;
12958;SDS011;6544;51.666;6.634;2023-07-29T11:30:54;1.48;;;1.30;;
12958;SDS011;6544;51.666;6.634;2023-07-29T11:33:23;1.90;;;1.48;;
12958;SDS011;6544;51.666;6.634;2023-07-29T11:35:53;1.50;;;1.40;;
12958;SDS011;6544;51.666;6.634;2023-07-29T11:38:20;2.17;;;1.40;;
12958;SDS011;6544;51.666;6.634;2023-07-29T11:40:58;2.30;;;1.45;;
12958;SDS011;6544;51.666;6.634;2023-07-29T11:43:28;2.50;;;1.65;;
12958;SDS011;6544;51.666;6.634;2023-07-29T11:45:55;1.60;;;1.50;;
12958;SDS011;6544;51.666;6.634;2023-07-29T11:48:31;2.35;;;1.60;;
12958;SDS011;6544;51.666;6.634;2023-07-29T11:50:59;1.88;;;1.45;;
12958;SDS011;6544;51.666;6.634;2023-07-29T11:53:27;4.20;;;1.60;;
12958;SDS011;6544;51.666;6.634;2023-07-29T11:55:56;2.55;;;1.65;;
12958;SDS011;6544;51.666;6.634;2023-07-29T11:58:23;2.85;;;1.30;;
12958;SDS011;6544;51.666;6.634;2023-07-29T12:00:50;2.05;;;1.65;;
12958;SDS011;6544;51.666;6.634;2023-07-29T12:03:18;1.85;;;1.65;;
12958;SDS011;6544;51.666;6.634;2023-07-29T12:05:46;3.80;;;1.40;;
12958;SDS011;6544;51.666;6.634;2023-07-29T12:08:13;2.10;;;1.50;;
12958;SDS011;6544;51.666;6.634;2023-07-29T12:10:40;3.08;;;1.52;;
12958;SDS011;6544;51.666;6.634;2023-07-29T12:13:08;4.22;;;1.67;;
12958;SDS011;6544;51.666;6.634;2023-07-29T12:15:37;3.50;;;1.80;;
12958;SDS011;6544;51.666;6.634;2023-07-29T12:18:05;1.90;;;1.63;;
12958;SDS011;6544;51.666;6.634;2023-07-29T12:20:32;1.85;;;1.60;;
12958;SDS011;6544;51.666;6.634;2023-07-29T12:23:01;2.47;;;1.73;;
12958;SDS011;6544;51.666;6.634;2023-07-29T12:25:30;1.95;;;1.48;;
12958;SDS011;6544;51.666;6.634;2023-07-29T12:28:01;2.75;;;1.65;;
12958;SDS011;6544;51.666;6.634;2023-07-29T12:30:29;1.92;;;1.70;;
12958;SDS011;6544;51.666;6.634;2023-07-29T12:32:56;2.13;;;1.83;;
12958;SDS011;6544;51.666;6.634;2023-07-29T12:35:22;2.53;;;1.70;;
12958;SDS011;6544;51.666;6.634;2023-07-29T12:37:58;2.35;;;1.50;;
12958;SDS011;6544;51.666;6.634;2023-07-29T12:40:26;1.63;;;1.48;;
12958;SDS011;6544;51.666;6.634;2023-07-29T12:42:53;2.30;;;1.60;;
12958;SDS011;6544;51.666;6.634;2023-07-29T12:45:21;4.22;;;1.77;;
12958;SDS011;6544;51.666;6.634;2023-07-29T12:47:51;2.67;;;1.70;;
12958;SDS011;6544;51.666;6.634;2023-07-29T12:50:18;4.20;;;2.00;;
12958;SDS011;6544;51.666;6.634;2023-07-29T12:52:46;2.08;;;1.75;;
12958;SDS011;6544;51.666;6.634;2023-07-29T12:55:13;3.08;;;1.70;;
12958;SDS011;6544;51.666;6.634;2023-07-29T12:57:42;1.90;;;1.70;;
12958;SDS011;6544;51.666;6.634;2023-07-29T13:00:10;2.47;;;1.70;;
12958;SDS011;6544;51.666;6.634;2023-07-29T13:02:37;2.33;;;1.80;;
12958;SDS011;6544;51.666;6.634;2023-07-29T13:05:04;3.20;;;1.80;;
12958;SDS011;6544;51.666;6.634;2023-07-29T13:07:32;1.70;;;1.60;;
12958;SDS011;6544;51.666;6.634;2023-07-29T13:10:00;4.88;;;1.90;;
12958;SDS011;6544;51.666;6.634;2023-07-29T13:12:27;2.80;;;1.98;;
12958;SDS011;6544;51.666;6.634;2023-07-29T13:14:55;4.82;;;1.92;;
12958;SDS011;6544;51.666;6.634;2023-07-29T13:17:22;3.10;;;2.00;;
12958;SDS011;6544;51.666;6.634;2023-07-29T13:19:49;5.70;;;1.90;;
12958;SDS011;6544;51.666;6.634;2023-07-29T13:22:16;5.03;;;2.30;;
12958;SDS011;6544;51.666;6.634;2023-07-29T13:24:43;4.65;;;2.00;;
12958;SDS011;6544;51.666;6.634;2023-07-29T13:27:09;3.88;;;2.10;;
12958;SDS011;6544;51.666;6.634;2023-07-29T13:29:36;2.67;;;1.80;;
12958;SDS011;6544;51.666;6.634;2023-07-29T13:32:05;3.08;;;1.92;;
12958;SDS011;6544;51.666;6.634;2023-07-29T13:34:33;4.80;;;2.13;;
12958;SDS011;6544;51.666;6.634;2023-07-29T13:37:00;2.67;;;1.90;;
12958;SDS011;6544;51.666;6.634;2023-07-29T13:39:27;4.05;;;1.65;;
12958;SDS011;6544;51.666;6.634;2023-07-29T13:41:54;5.05;;;1.80;;
12958;SDS011;6544;51.666;6.634;2023-07-29T13:44:21;2.53;;;1.50;;
12958;SDS011;6544;51.666;6.634;2023-07-29T13:46:48;3.15;;;1.50;;
12958;SDS011;6544;51.666;6.634;2023-07-29T13:49:16;4.97;;;2.00;;
12958;SDS011;6544;51.666;6.634;2023-07-29T13:51:43;5.65;;;1.80;;
12958;SDS011;6544;51.666;6.634;2023-07-29T13:54:11;5.15;;;1.60;;
12958;SDS011;6544;51.666;6.634;2023-07-29T13:56:38;5.50;;;1.65;;
12958;SDS011;6544;51.666;6.634;2023-07-29T13:59:05;5.53;;;1.80;;
12958;SDS011;6544;51.666;6.634;2023-07-29T14:01:32;3.33;;;1.40;;
12958;SDS011;6544;51.666;6.634;2023-07-29T14:03:59;3.40;;;1.40;;
12958;SDS011;6544;51.666;6.634;2023-07-29T14:06:27;4.43;;;1.50;;
12958;SDS011;6544;51.666;6.634;2023-07-29T14:08:55;3.55;;;1.50;;
12958;SDS011;6544;51.666;6.634;2023-07-29T14:11:22;2.38;;;1.70;;
12958;SDS011;6544;51.666;6.634;2023-07-29T14:13:49;2.97;;;1.73;;
12958;SDS011;6544;51.666;6.634;2023-07-29T14:16:16;1.88;;;1.50;;
12958;SDS011;6544;51.666;6.634;2023-07-29T14:18:43;2.72;;;1.70;;
12958;SDS011;6544;51.666;6.634;2023-07-29T14:21:09;2.75;;;1.65;;
12958;SDS011;6544;51.666;6.634;2023-07-29T14:23:38;2.72;;;1.60;;
12958;SDS011;6544;51.666;6.634;2023-07-29T14:26:05;2.75;;;1.58;;
12958;SDS011;6544;51.666;6.634;2023-07-29T14:28:34;1.75;;;1.45;;
12958;SDS011;6544;51.666;6.634;2023-07-29T14:31:01;2.65;;;1.70;;
12958;SDS011;6544;51.666;6.634;2023-07-29T14:33:28;3.33;;;1.90;;
12958;SDS011;6544;51.666;6.634;2023-07-29T14:35:55;2.58;;;1.58;;
12958;SDS011;6544;51.666;6.634;2023-07-29T14:38:22;2.65;;;1.67;;
12958;SDS011;6544;51.666;6.634;2023-07-29T14:40:52;3.80;;;1.50;;
12958;SDS011;6544;51.666;6.634;2023-07-29T14:43:21;2.17;;;1.40;;
12958;SDS011;6544;51.666;6.634;2023-07-29T14:45:48;2.75;;;1.40;;
12958;SDS011;6544;51.666;6.634;2023-07-29T14:48:15;2.03;;;1.48;;
12958;SDS011;6544;51.666;6.634;2023-07-29T14:50:42;3.28;;;1.52;;
12958;SDS011;6544;51.666;6.634;2023-07-29T14:53:09;3.72;;;1.50;;
12958;SDS011;6544;51.666;6.634;2023-07-29T14:55:36;3.38;;;1.60;;
12958;SDS011;6544;51.666;6.634;2023-07-29T14:58:05;2.25;;;1.40;;
12958;SDS011;6544;51.666;6.634;2023-07-29T15:00:32;1.83;;;1.40;;
12958;SDS011;6544;51.666;6.634;2023-07-29T15:02:59;3.42;;;1.70;;
12958;SDS011;6544;51.666;6.634;2023-07-29T15:05:26;1.65;;;1.40;;